Time;durP1;ratioP1;P1;durP2;ratioP2;P2;SDS_P1;SDS_P2;PMS_P1;PMS_P2;Temp;Humidity;BMP_temperature;BMP_pressure;BME280_temperature;BME280_humidity;BME280_pressure;Samples;Min_cycle;Max_cycle;Signal;HPM_P1;HPM_P2
2022/07/04 00:00:48;;;;;;;5.35;4.95;;;22.80;53.50;;;;;;6251765;22;20168;-87
2022/07/04 00:03:13;;;;;;;5.40;4.90;;;22.80;53.40;;;;;;6226563;22;20171;-89
2022/07/04 00:05:39;;;;;;;5.70;5.25;;;22.70;53.30;;;;;;6252232;22;20152;-90
2022/07/04 00:08:05;;;;;;;5.18;4.78;;;22.80;53.50;;;;;;6251802;22;20125;-88
2022/07/04 00:10:31;;;;;;;5.10;4.70;;;22.80;53.50;;;;;;6226565;22;20231;-90
2022/07/04 00:12:56;;;;;;;5.20;4.78;;;22.80;53.50;;;;;;6226453;22;20184;-90
2022/07/04 00:15:25;;;;;;;5.43;4.97;;;22.70;53.40;;;;;;6226826;22;20216;-90
2022/07/04 00:17:50;;;;;;;5.38;4.97;;;22.70;53.40;;;;;;6227582;22;20231;-90
2022/07/04 00:20:16;;;;;;;5.50;5.10;;;22.70;53.50;;;;;;6277354;22;20164;-89
2022/07/04 00:22:42;;;;;;;5.45;4.95;;;22.80;53.60;;;;;;6226485;22;20145;-89
2022/07/04 00:25:09;;;;;;;5.43;5.00;;;22.70;53.60;;;;;;6251642;22;20133;-89
2022/07/04 00:27:36;;;;;;;5.78;5.28;;;22.70;53.60;;;;;;6226602;22;20141;-88
2022/07/04 00:30:04;;;;;;;4.97;4.57;;;22.70;53.50;;;;;;6226162;22;20137;-89
2022/07/04 00:32:30;;;;;;;5.50;5.00;;;22.70;53.70;;;;;;6226704;22;20175;-89
2022/07/04 00:34:56;;;;;;;5.15;4.75;;;22.70;53.70;;;;;;6251711;22;20560;-87
2022/07/04 00:37:23;;;;;;;5.20;4.80;;;22.70;53.60;;;;;;6226371;22;20143;-89
2022/07/04 00:39:48;;;;;;;5.75;5.25;;;22.70;53.70;;;;;;6227000;22;20133;-88
2022/07/04 00:42:15;;;;;;;4.65;4.25;;;22.70;53.60;;;;;;6226253;22;20149;-88
2022/07/04 00:44:41;;;;;;;5.45;4.95;;;22.70;53.70;;;;;;6226520;22;20137;-87
2022/07/04 00:47:07;;;;;;;5.60;5.10;;;22.70;53.90;;;;;;6225718;22;20469;-87
2022/07/04 00:49:33;;;;;;;4.97;4.57;;;22.70;53.90;;;;;;6225709;22;20200;-88
2022/07/04 00:52:00;;;;;;;5.15;4.75;;;22.70;53.80;;;;;;6225901;22;20181;-87
2022/07/04 00:54:28;;;;;;;5.00;4.60;;;22.70;53.90;;;;;;6276746;22;20137;-90
2022/07/04 00:56:54;;;;;;;5.43;4.93;;;22.70;53.80;;;;;;6252468;22;20145;-87
2022/07/04 00:59:25;;;;;;;5.10;4.70;;;22.70;53.90;;;;;;6251305;22;20129;-88
2022/07/04 01:01:50;;;;;;;5.53;5.03;;;22.70;53.90;;;;;;6276721;22;20137;-88
2022/07/04 01:04:16;;;;;;;5.30;4.90;;;22.70;53.90;;;;;;6226598;22;20522;-90
2022/07/04 01:06:42;;;;;;;5.15;4.75;;;22.70;53.90;;;;;;6250993;22;20516;-89
2022/07/04 01:09:10;;;;;;;5.00;4.60;;;22.70;53.90;;;;;;6225442;22;20507;-88
2022/07/04 01:11:37;;;;;;;5.30;4.90;;;22.70;53.90;;;;;;6276358;22;20243;-90
2022/07/04 01:14:02;;;;;;;5.72;5.22;;;22.70;53.90;;;;;;6250972;22;20130;-89
2022/07/04 01:16:28;;;;;;;5.45;5.05;;;22.60;54.50;;;;;;6226402;22;20144;-90
2022/07/04 01:18:54;;;;;;;5.50;5.00;;;22.70;54.10;;;;;;6226084;22;20144;-88
2022/07/04 01:21:21;;;;;;;5.20;4.80;;;22.70;54.00;;;;;;6225711;22;20144;-88
2022/07/04 01:23:47;;;;;;;5.57;5.07;;;22.70;54.10;;;;;;6226146;22;20218;-91
2022/07/04 01:26:13;;;;;;;5.28;4.88;;;22.60;54.10;;;;;;6225799;22;20577;-90
2022/07/04 01:28:39;;;;;;;5.05;4.65;;;22.70;54.10;;;;;;6251083;22;20171;-90
2022/07/04 01:31:05;;;;;;;5.00;4.60;;;22.60;54.00;;;;;;6225582;22;20148;-89
2022/07/04 01:33:31;;;;;;;5.20;4.80;;;22.60;54.10;;;;;;6225640;22;20160;-91
2022/07/04 01:35:57;;;;;;;5.68;5.18;;;22.60;54.00;;;;;;6225860;22;20637;-89
2022/07/04 01:38:24;;;;;;;5.25;4.85;;;22.60;54.10;;;;;;6225805;22;20172;-90
2022/07/04 01:40:50;;;;;;;5.00;4.60;;;22.70;54.10;;;;;;6225765;22;20568;-88
2022/07/04 01:43:21;;;;;;;5.20;4.80;;;22.70;54.00;;;;;;6225647;22;20183;-90
2022/07/04 01:45:48;;;;;;;5.43;4.95;;;22.70;54.10;;;;;;6251010;22;20514;-89
2022/07/04 01:48:16;;;;;;;5.20;4.80;;;22.70;54.00;;;;;;6250947;22;20156;-88
2022/07/04 01:50:42;;;;;;;5.78;5.25;;;22.70;54.00;;;;;;6225385;22;20199;-88
2022/07/04 01:53:08;;;;;;;5.38;4.88;;;22.70;54.00;;;;;;6250924;22;20596;-89
2022/07/04 01:55:34;;;;;;;5.05;4.65;;;22.70;54.00;;;;;;6225362;22;20159;-89
2022/07/04 01:58:02;;;;;;;5.72;5.22;;;22.70;53.90;;;;;;6225536;22;20175;-89
2022/07/04 02:03:14;;;;;;;5.82;5.32;;;22.70;54.10;;;;;;6255000;22;20187;-88
2022/07/04 02:05:43;;;;;;;5.60;5.20;;;22.70;54.10;;;;;;6225235;22;20144;-88
2022/07/04 02:08:10;;;;;;;5.80;5.30;;;22.60;54.10;;;;;;6225517;22;20149;-90
2022/07/04 02:10:35;;;;;;;5.60;5.10;;;22.60;54.10;;;;;;6276247;22;20152;-88
2022/07/04 02:13:03;;;;;;;5.45;5.05;;;22.60;54.20;;;;;;6225169;22;20176;-90
2022/07/04 02:15:35;;;;;;;5.22;4.75;;;22.60;54.30;;;;;;6225685;22;20500;-88
2022/07/04 02:18:01;;;;;;;5.60;5.10;;;22.60;54.20;;;;;;6225637;22;20171;-87
2022/07/04 02:20:27;;;;;;;5.35;4.95;;;22.60;54.20;;;;;;6225483;22;20234;-90
2022/07/04 02:22:53;;;;;;;5.43;5.03;;;22.60;54.10;;;;;;6225584;22;20151;-89
2022/07/04 02:25:23;;;;;;;5.45;5.05;;;22.70;54.30;;;;;;6251444;22;20144;-88
2022/07/04 02:27:48;;;;;;;5.93;5.43;;;22.60;54.30;;;;;;6250277;22;20176;-89
2022/07/04 02:30:15;;;;;;;5.43;5.03;;;22.60;54.40;;;;;;6250658;22;20158;-88
2022/07/04 02:32:41;;;;;;;5.65;5.15;;;22.60;54.20;;;;;;6225591;22;20185;-88
2022/07/04 02:35:08;;;;;;;5.60;5.10;;;22.60;54.40;;;;;;6225495;22;20155;-88
2022/07/04 02:37:34;;;;;;;5.65;5.25;;;22.60;54.30;;;;;;6225546;22;20155;-89
2022/07/04 02:39:59;;;;;;;5.18;4.78;;;22.60;54.30;;;;;;6225203;22;20144;-89
2022/07/04 02:42:30;;;;;;;5.70;5.25;;;22.60;54.20;;;;;;6224804;22;20149;-91
2022/07/04 02:44:56;;;;;;;6.05;5.55;;;22.60;54.40;;;;;;6225910;22;20145;-90
2022/07/04 02:47:22;;;;;;;5.25;4.85;;;22.60;54.40;;;;;;6225219;22;20167;-88
2022/07/04 02:49:48;;;;;;;5.40;5.00;;;22.60;54.40;;;;;;6224918;22;20192;-89
2022/07/04 02:52:13;;;;;;;5.75;5.25;;;22.50;54.40;;;;;;6250019;22;20215;-89
2022/07/04 02:54:41;;;;;;;5.43;5.03;;;22.60;54.40;;;;;;6225206;22;20235;-90
2022/07/04 02:57:07;;;;;;;5.40;5.00;;;22.60;54.40;;;;;;6225424;22;20151;-89
2022/07/04 02:59:35;;;;;;;4.82;4.43;;;22.60;54.50;;;;;;6225279;22;20172;-89
2022/07/04 03:02:01;;;;;;;5.88;5.38;;;22.60;54.40;;;;;;6224753;22;20157;-88
2022/07/04 03:04:28;;;;;;;5.30;4.85;;;22.60;54.70;;;;;;6225561;22;20155;-89
2022/07/04 03:06:54;;;;;;;5.38;4.90;;;22.50;54.50;;;;;;6225034;22;20485;-88
2022/07/04 03:09:21;;;;;;;5.15;4.72;;;22.60;54.50;;;;;;6275837;22;20191;-87
2022/07/04 03:11:47;;;;;;;5.80;5.30;;;22.60;54.60;;;;;;6224671;22;20612;-87
2022/07/04 03:14:15;;;;;;;5.60;5.20;;;22.60;54.40;;;;;;6225012;22;20180;-88
2022/07/04 03:16:42;;;;;;;5.30;4.90;;;22.60;54.60;;;;;;6276056;22;20149;-88
2022/07/04 03:19:08;;;;;;;5.22;4.82;;;22.50;54.40;;;;;;6225324;22;20147;-89
2022/07/04 03:21:34;;;;;;;5.70;5.20;;;22.60;54.60;;;;;;6224653;22;20149;-87
2022/07/04 03:24:00;;;;;;;5.90;5.40;;;22.50;54.50;;;;;;6249972;22;20579;-89
2022/07/04 03:26:29;;;;;;;5.55;5.05;;;22.50;54.50;;;;;;6250280;22;20140;-89
2022/07/04 03:28:55;;;;;;;6.13;5.57;;;22.60;54.60;;;;;;6250322;22;20124;-89
2022/07/04 03:31:22;;;;;;;5.53;5.05;;;22.60;54.80;;;;;;6250007;22;20131;-87
2022/07/04 03:33:48;;;;;;;5.30;4.90;;;22.50;54.50;;;;;;6275870;22;20129;-89
2022/07/04 03:36:17;;;;;;;5.82;5.32;;;22.60;54.80;;;;;;6224871;22;20215;-90
2022/07/04 03:38:44;;;;;;;5.72;5.32;;;22.50;54.70;;;;;;6224847;22;20148;-87
2022/07/04 03:41:11;;;;;;;5.53;5.05;;;22.60;54.60;;;;;;6250166;22;20129;-89
2022/07/04 03:43:36;;;;;;;5.40;5.00;;;22.60;54.80;;;;;;6249991;22;20129;-89
2022/07/04 03:46:02;;;;;;;5.70;5.20;;;22.60;54.90;;;;;;6250228;22;20618;-89
2022/07/04 03:48:29;;;;;;;5.70;5.20;;;22.60;54.70;;;;;;6224809;22;20157;-88
2022/07/04 03:50:55;;;;;;;5.00;4.60;;;22.50;54.70;;;;;;6224794;22;20532;-90
2022/07/04 03:53:22;;;;;;;6.00;5.50;;;22.50;54.70;;;;;;6250534;22;20165;-87
2022/07/04 03:55:48;;;;;;;5.38;4.97;;;22.60;54.70;;;;;;6225010;22;20147;-89
2022/07/04 03:58:16;;;;;;;5.72;5.22;;;22.50;54.60;;;;;;6251839;22;20590;-89
2022/07/04 04:00:43;;;;;;;5.45;5.05;;;22.60;54.70;;;;;;6250666;22;20452;-88
2022/07/04 04:06:20;;;;;;;5.20;4.80;;;22.60;54.50;;;;;;6276471;22;20144;-88
2022/07/04 04:08:46;;;;;;;5.70;5.20;;;22.60;54.80;;;;;;6225418;22;20144;-90
2022/07/04 04:11:13;;;;;;;5.22;4.82;;;22.70;54.70;;;;;;6224056;22;20171;-89
2022/07/04 04:13:39;;;;;;;5.10;4.70;;;22.60;54.60;;;;;;6275036;22;20137;-87
2022/07/04 04:16:05;;;;;;;5.60;5.10;;;22.70;54.70;;;;;;6249519;22;20149;-89
2022/07/04 04:18:33;;;;;;;5.15;4.70;;;22.70;54.60;;;;;;6249661;22;20220;-89
2022/07/04 04:21:00;;;;;;;5.50;5.10;;;22.60;54.70;;;;;;6226726;22;20164;-88
2022/07/04 04:23:27;;;;;;;5.10;4.70;;;22.70;54.70;;;;;;6226701;22;20145;-89
2022/07/04 04:25:53;;;;;;;5.10;4.70;;;22.60;54.70;;;;;;6277052;22;20136;-88
2022/07/04 04:28:20;;;;;;;4.95;4.55;;;22.70;54.80;;;;;;6226709;22;20144;-89
2022/07/04 04:30:45;;;;;;;5.57;5.15;;;22.60;54.70;;;;;;6226041;22;20157;-87
2022/07/04 04:33:11;;;;;;;4.93;4.53;;;22.70;54.70;;;;;;6251865;22;20181;-89
2022/07/04 04:35:37;;;;;;;4.68;4.28;;;22.70;54.70;;;;;;6226383;22;20141;-88
2022/07/04 04:38:02;;;;;;;4.93;4.53;;;22.70;54.70;;;;;;6251499;22;20136;-88
2022/07/04 04:40:29;;;;;;;4.78;4.40;;;22.80;54.80;;;;;;6251555;22;20133;-88
2022/07/04 04:42:56;;;;;;;5.18;4.78;;;22.70;55.00;;;;;;6226897;22;20600;-89
2022/07/04 04:45:23;;;;;;;4.90;4.50;;;22.70;54.70;;;;;;6251517;22;20133;-89
2022/07/04 04:47:49;;;;;;;5.30;4.90;;;22.70;54.90;;;;;;6226007;22;20215;-89
2022/07/04 04:50:14;;;;;;;4.97;4.57;;;22.80;54.80;;;;;;6225654;22;20223;-89
2022/07/04 04:52:41;;;;;;;4.55;4.15;;;22.80;54.90;;;;;;6277164;22;20212;-89
2022/07/04 04:55:07;;;;;;;4.82;4.43;;;22.80;55.00;;;;;;6225778;22;20145;-88
2022/07/04 04:57:33;;;;;;;5.15;4.75;;;22.80;55.00;;;;;;6251417;22;20224;-88
2022/07/04 04:59:59;;;;;;;4.57;4.28;;;22.80;55.00;;;;;;6225967;22;20137;-88
2022/07/04 05:02:26;;;;;;;4.45;4.15;;;22.70;55.40;;;;;;6225566;22;20160;-89
2022/07/04 05:04:52;;;;;;;4.70;4.22;;;22.80;55.70;;;;;;6226124;22;20145;-87
2022/07/04 05:07:19;;;;;;;5.00;4.60;;;22.70;55.50;;;;;;6226028;22;20144;-88
2022/07/04 05:09:45;;;;;;;4.40;4.10;;;22.90;55.30;;;;;;6250869;22;20140;-88
2022/07/04 05:12:12;;;;;;;4.35;4.05;;;22.80;55.30;;;;;;6251190;22;20165;-88
2022/07/04 05:14:39;;;;;;;4.88;4.38;;;22.80;55.70;;;;;;6226005;22;20214;-89
2022/07/04 05:17:06;;;;;;;4.93;4.53;;;22.80;55.40;;;;;;6250891;22;20137;-89
2022/07/04 05:19:31;;;;;;;4.65;4.25;;;22.80;55.40;;;;;;6252186;22;20187;-89
2022/07/04 05:22:02;;;;;;;4.78;4.38;;;22.80;55.60;;;;;;6276642;22;20133;-89
2022/07/04 05:24:29;;;;;;;4.90;4.50;;;22.70;55.70;;;;;;6225957;22;20196;-88
2022/07/04 05:26:55;;;;;;;4.80;4.40;;;22.80;56.40;;;;;;6225451;22;20149;-89
2022/07/04 05:29:21;;;;;;;4.78;4.38;;;22.80;55.90;;;;;;6250912;22;20220;-88
2022/07/04 05:31:50;;;;;;;4.70;4.30;;;22.80;56.10;;;;;;6250867;22;20172;-89
2022/07/04 05:34:18;;;;;;;4.50;4.10;;;22.80;55.90;;;;;;6251273;22;20169;-88
2022/07/04 05:36:44;;;;;;;4.80;4.40;;;22.90;56.00;;;;;;6227468;22;20147;-87
2022/07/04 05:39:10;;;;;;;5.03;4.63;;;22.90;56.00;;;;;;6276019;22;20544;-88
2022/07/04 05:41:36;;;;;;;4.80;4.40;;;22.90;55.90;;;;;;6277316;22;20137;-88
2022/07/04 05:44:02;;;;;;;4.57;4.18;;;22.90;56.10;;;;;;6276434;22;20183;-86
2022/07/04 05:46:28;;;;;;;4.72;4.32;;;22.90;56.20;;;;;;6250722;22;20129;-87
2022/07/04 05:48:54;;;;;;;4.72;4.32;;;23.00;56.20;;;;;;6229829;22;20203;-88
2022/07/04 05:51:20;;;;;;;4.15;3.85;;;23.00;56.10;;;;;;6255628;22;20128;-89
2022/07/04 05:53:55;;;;;;;4.00;3.70;;;22.90;56.20;;;;;;6257167;22;20128;-89
2022/07/04 05:56:23;;;;;;;4.53;4.13;;;23.00;56.40;;;;;;6225315;23;20157;-89
2022/07/04 05:58:48;;;;;;;4.10;3.80;;;23.00;56.70;;;;;;6195550;23;20154;-87
2022/07/04 06:01:18;;;;;;;4.50;4.10;;;23.00;56.50;;;;;;6196686;23;20176;-88
2022/07/04 06:03:49;;;;;;;4.38;4.07;;;23.00;56.60;;;;;;6193854;23;20150;-89
2022/07/04 06:06:20;;;;;;;4.60;4.20;;;22.90;56.80;;;;;;6161600;23;20186;-88
2022/07/04 06:08:53;;;;;;;4.45;4.15;;;22.90;57.00;;;;;;6186847;23;20162;-90
2022/07/04 06:11:22;;;;;;;4.57;4.18;;;22.90;57.40;;;;;;6109987;23;20198;-89
2022/07/04 06:14:00;;;;;;;5.00;4.60;;;22.90;57.40;;;;;;6054517;23;20212;-89
2022/07/04 06:16:32;;;;;;;4.35;4.05;;;23.00;57.30;;;;;;6052809;23;20162;-89
2022/07/04 06:19:28;;;;;;;4.07;3.78;;;23.00;57.90;;;;;;5990032;24;20151;-89
2022/07/04 06:22:06;;;;;;;4.18;3.88;;;23.10;57.30;;;;;;5964160;24;20231;-89
2022/07/04 06:24:32;;;;;;;4.55;4.22;;;23.10;57.30;;;;;;6008766;23;20187;-91
2022/07/04 06:27:03;;;;;;;4.72;4.32;;;23.10;57.40;;;;;;5997423;23;20159;-89
2022/07/04 06:29:52;;;;;;;4.60;4.20;;;23.10;57.50;;;;;;5955037;24;20547;-91
2022/07/04 06:32:51;;;;;;;5.30;4.80;;;23.20;57.60;;;;;;5925096;24;20188;-90
2022/07/04 06:36:09;;;;;;;4.38;3.97;;;23.20;57.40;;;;;;5929198;24;20664;-91
2022/07/04 06:38:35;;;;;;;4.47;4.07;;;23.30;57.20;;;;;;5901516;24;20200;-90
2022/07/04 06:41:15;;;;;;;5.28;4.78;;;23.30;57.30;;;;;;5903244;24;20153;-90
2022/07/04 06:43:45;;;;;;;4.85;4.35;;;23.20;57.30;;;;;;5900255;24;20164;-90
2022/07/04 06:46:11;;;;;;;5.07;4.30;;;23.20;57.70;;;;;;5878632;24;20167;-90
2022/07/04 06:48:37;;;;;;;6.32;4.32;;;23.20;57.90;;;;;;5894327;24;20665;-90
2022/07/04 06:51:05;;;;;;;5.00;4.50;;;23.20;57.90;;;;;;5881557;24;20478;-90
2022/07/04 06:53:32;;;;;;;4.97;4.53;;;23.20;58.00;;;;;;5902445;24;20188;-88
2022/07/04 06:55:59;;;;;;;4.93;4.53;;;23.20;57.70;;;;;;5921356;24;20155;-90
2022/07/04 06:58:27;;;;;;;5.10;4.70;;;23.30;57.70;;;;;;6021872;23;20162;-90
2022/07/04 07:00:53;;;;;;;4.90;4.50;;;23.30;57.60;;;;;;6032659;23;20153;-89
2022/07/04 07:03:19;;;;;;;5.00;4.50;;;23.40;57.50;;;;;;6100596;23;20167;-90
2022/07/04 07:05:45;;;;;;;4.53;4.15;;;23.40;57.30;;;;;;6076042;23;20160;-89
2022/07/04 07:08:11;;;;;;;5.30;4.80;;;23.40;57.40;;;;;;6099740;23;20163;-88
2022/07/04 07:10:36;;;;;;;4.60;4.30;;;23.40;57.30;;;;;;6123775;23;20148;-87
2022/07/04 07:13:02;;;;;;;5.35;4.85;;;23.40;57.20;;;;;;6122682;23;20182;-88
2022/07/04 07:15:31;;;;;;;4.97;4.57;;;23.40;57.30;;;;;;6212013;22;20148;-87
2022/07/04 07:17:58;;;;;;;5.70;5.20;;;23.40;57.30;;;;;;6255383;22;20147;-89
2022/07/04 07:20:25;;;;;;;5.72;5.22;;;23.30;57.40;;;;;;6257957;22;20231;-88
2022/07/04 07:22:52;;;;;;;4.82;4.43;;;23.40;57.60;;;;;;6234159;22;20159;-89
2022/07/04 07:25:21;;;;;;;4.82;4.43;;;23.20;57.70;;;;;;6236244;22;20145;-87
2022/07/04 07:27:53;;;;;;;5.50;5.00;;;23.10;57.80;;;;;;6191977;23;20154;-88
2022/07/04 07:30:20;;;;;;;5.43;4.93;;;23.10;58.10;;;;;;6170203;23;20182;-89
2022/07/04 07:32:45;;;;;;;5.88;4.97;;;23.00;58.80;;;;;;6121739;23;20182;-88
2022/07/04 07:35:11;;;;;;;5.38;4.88;;;23.00;58.20;;;;;;6115493;23;20142;-86
2022/07/04 07:37:41;;;;;;;5.18;4.78;;;23.00;58.40;;;;;;6134148;23;20652;-88
2022/07/04 07:40:08;;;;;;;5.15;4.72;;;23.00;58.40;;;;;;6158640;23;20163;-92
2022/07/04 07:42:35;;;;;;;5.25;4.75;;;23.00;58.60;;;;;;6134208;23;20146;-88
2022/07/04 07:45:02;;;;;;;5.30;4.80;;;23.00;58.80;;;;;;6134646;23;20467;-89
2022/07/04 07:47:29;;;;;;;5.38;4.88;;;22.90;58.60;;;;;;6109726;23;20158;-88
2022/07/04 07:49:55;;;;;;;5.50;5.00;;;23.00;58.60;;;;;;6133872;23;20194;-89
2022/07/04 07:52:22;;;;;;;5.50;5.00;;;22.90;58.50;;;;;;6134071;23;20680;-90
2022/07/04 07:54:47;;;;;;;5.07;4.68;;;23.00;58.70;;;;;;6134720;23;20513;-89
2022/07/04 07:57:15;;;;;;;5.22;4.75;;;22.90;58.70;;;;;;6136250;23;20147;-91
2022/07/04 07:59:41;;;;;;;5.20;4.80;;;22.90;58.70;;;;;;6222123;22;20152;-89
2022/07/04 08:02:13;;;;;;;4.97;4.53;;;22.90;58.70;;;;;;6235731;22;20155;-90
2022/07/04 08:04:42;;;;;;;5.18;4.78;;;23.00;59.10;;;;;;6199398;23;20177;-89
2022/07/04 08:07:12;;;;;;;5.22;4.72;;;23.00;58.90;;;;;;6199502;23;20200;-89
2022/07/04 08:09:38;;;;;;;5.28;4.78;;;23.00;58.80;;;;;;6196059;23;20153;-88
2022/07/04 08:12:08;;;;;;;5.78;5.28;;;23.00;58.80;;;;;;6170026;23;20176;-89
2022/07/04 08:14:34;;;;;;;5.03;4.63;;;23.00;58.70;;;;;;6220000;23;20153;-89
2022/07/04 08:17:00;;;;;;;4.95;4.55;;;23.00;58.80;;;;;;6170206;23;20153;-88
2022/07/04 08:19:26;;;;;;;5.63;5.13;;;23.00;58.70;;;;;;6170209;23;20491;-88
2022/07/04 08:21:53;;;;;;;5.57;5.07;;;23.00;58.80;;;;;;6194799;23;20496;-88
2022/07/04 08:24:20;;;;;;;5.95;5.45;;;23.00;59.10;;;;;;6170067;23;20500;-88
2022/07/04 08:26:47;;;;;;;5.50;5.00;;;23.00;59.10;;;;;;6170322;23;20228;-89
2022/07/04 08:29:13;;;;;;;5.60;5.10;;;23.00;58.90;;;;;;6170399;23;20156;-90
2022/07/04 08:31:39;;;;;;;5.43;4.93;;;23.00;58.90;;;;;;6169823;23;20170;-88
2022/07/04 08:34:06;;;;;;;5.60;5.10;;;23.00;59.00;;;;;;6219785;23;20500;-89
2022/07/04 08:36:31;;;;;;;5.47;4.97;;;23.00;59.00;;;;;;6250476;22;20163;-89
2022/07/04 08:38:58;;;;;;;5.18;4.78;;;23.00;59.20;;;;;;6256731;22;20505;-89
2022/07/04 08:41:24;;;;;;;5.60;5.10;;;23.00;59.10;;;;;;6230994;22;20144;-89
2022/07/04 08:43:50;;;;;;;5.13;4.72;;;23.00;59.10;;;;;;6231284;22;20542;-90
2022/07/04 08:46:17;;;;;;;5.40;4.90;;;23.00;59.20;;;;;;6256041;22;20238;-88
2022/07/04 08:48:48;;;;;;;5.75;5.18;;;23.00;59.10;;;;;;6231084;22;20154;-89
2022/07/04 08:51:18;;;;;;;5.18;4.78;;;23.00;59.10;;;;;;6232137;22;20148;-89
2022/07/04 08:53:51;;;;;;;5.72;4.80;;;23.00;59.10;;;;;;6231482;22;20156;-89
2022/07/04 08:59:00;;;;;;;5.57;5.07;;;23.00;59.10;;;;;;6263124;22;20130;-88
2022/07/04 09:01:27;;;;;;;5.45;4.95;;;23.00;59.10;;;;;;6281614;22;20135;-88
2022/07/04 09:03:52;;;;;;;5.35;4.85;;;23.00;59.20;;;;;;6281986;22;20136;-90
2022/07/04 09:06:18;;;;;;;5.80;5.30;;;23.00;59.20;;;;;;6256320;22;20133;-88
2022/07/04 09:08:44;;;;;;;5.38;4.88;;;23.00;59.20;;;;;;6256275;22;20146;-87
2022/07/04 09:11:10;;;;;;;4.93;4.43;;;23.10;59.10;;;;;;6256172;22;20197;-88
2022/07/04 09:13:36;;;;;;;4.40;4.00;;;23.20;58.90;;;;;;6255885;22;20176;-89
2022/07/04 09:16:02;;;;;;;4.70;4.30;;;23.20;58.80;;;;;;6281617;22;20124;-89
2022/07/04 09:18:32;;;;;;;4.63;4.22;;;23.20;58.60;;;;;;6230636;22;20148;-89
2022/07/04 09:21:04;;;;;;;5.20;4.80;;;23.20;58.60;;;;;;6256442;22;20139;-87
2022/07/04 09:23:33;;;;;;;4.28;3.88;;;23.10;58.60;;;;;;6231538;22;20241;-88
2022/07/04 09:26:17;;;;;;;4.88;4.47;;;23.10;59.30;;;;;;6233146;22;20551;-88
2022/07/04 09:28:45;;;;;;;5.65;4.03;;;23.00;58.80;;;;;;6231690;22;20195;-87
2022/07/04 09:31:22;;;;;;;4.35;3.95;;;23.00;58.90;;;;;;6281601;22;20133;-90
2022/07/04 09:33:54;;;;;;;4.55;4.15;;;23.00;58.90;;;;;;6231312;22;20186;-87
2022/07/04 09:36:23;;;;;;;4.72;4.32;;;23.10;58.90;;;;;;6231021;22;20136;-90
2022/07/04 09:39:06;;;;;;;5.00;4.57;;;23.00;59.00;;;;;;6256084;22;20128;-89
2022/07/04 09:41:51;;;;;;;4.07;3.78;;;22.90;59.10;;;;;;6255698;22;20613;-88
2022/07/04 09:44:19;;;;;;;4.88;4.47;;;23.00;59.10;;;;;;6256333;22;20127;-87
2022/07/04 09:46:46;;;;;;;4.75;4.35;;;23.00;59.10;;;;;;6230459;22;20140;-87
2022/07/04 09:49:11;;;;;;;4.55;4.15;;;23.00;59.10;;;;;;6256241;22;20234;-89
2022/07/04 09:51:42;;;;;;;4.45;4.05;;;23.00;59.10;;;;;;6256856;22;20545;-89
2022/07/04 09:54:16;;;;;;;3.90;3.47;;;23.00;59.10;;;;;;6257298;22;20152;-88
2022/07/04 09:56:49;;;;;;;4.10;3.80;;;23.00;58.90;;;;;;6281718;22;20147;-91
2022/07/04 09:59:15;;;;;;;3.90;3.60;;;23.00;59.00;;;;;;6230894;22;20145;-88
2022/07/04 10:01:44;;;;;;;4.70;4.30;;;22.90;58.90;;;;;;6231524;22;20151;-91
2022/07/04 10:04:12;;;;;;;4.70;4.30;;;23.00;59.00;;;;;;6281704;22;20189;-90
2022/07/04 10:06:41;;;;;;;4.40;4.00;;;22.90;59.10;;;;;;6231442;22;20144;-90
2022/07/04 10:09:13;;;;;;;3.80;3.50;;;22.90;59.70;;;;;;6256491;22;20140;-89
2022/07/04 10:11:40;;;;;;;4.03;3.72;;;22.90;59.10;;;;;;6255937;22;20160;-90
2022/07/04 10:14:06;;;;;;;3.42;3.05;;;22.90;59.00;;;;;;6230962;22;20171;-90
2022/07/04 10:16:33;;;;;;;4.03;3.72;;;23.00;59.00;;;;;;6255960;22;20135;-90
2022/07/04 10:19:02;;;;;;;4.20;3.80;;;23.00;59.10;;;;;;6230706;22;20223;-89
2022/07/04 10:21:31;;;;;;;3.70;3.40;;;22.90;59.00;;;;;;6232572;22;20150;-88
2022/07/04 10:23:59;;;;;;;3.80;3.50;;;23.00;59.10;;;;;;6258052;22;20137;-89
2022/07/04 10:26:25;;;;;;;4.13;3.83;;;23.00;59.10;;;;;;6195556;23;20609;-89
2022/07/04 10:28:55;;;;;;;4.35;3.95;;;22.90;59.20;;;;;;6194943;23;20149;-88
2022/07/04 10:31:23;;;;;;;4.10;3.80;;;22.90;59.20;;;;;;6195694;23;20160;-90
2022/07/04 10:33:50;;;;;;;3.60;3.30;;;22.80;59.20;;;;;;6170671;23;20181;-89
2022/07/04 10:36:18;;;;;;;3.80;3.50;;;22.70;59.20;;;;;;6172436;23;20168;-90
2022/07/04 10:38:49;;;;;;;4.13;3.72;;;22.70;59.20;;;;;;6173124;23;20173;-89
2022/07/04 10:41:18;;;;;;;4.03;3.72;;;22.70;59.20;;;;;;6173600;23;20150;-90
2022/07/04 10:43:52;;;;;;;4.18;3.88;;;22.70;60.00;;;;;;6199000;23;20201;-89
2022/07/04 10:46:36;;;;;;;3.90;3.60;;;22.70;59.40;;;;;;6174338;23;20153;-92
2022/07/04 10:49:16;;;;;;;4.20;3.80;;;22.60;59.60;;;;;;6200514;23;20189;-90
2022/07/04 10:51:44;;;;;;;3.53;3.22;;;22.60;59.90;;;;;;6200600;23;20187;-89
2022/07/04 10:54:28;;;;;;;3.67;3.38;;;22.60;60.30;;;;;;6174923;23;20148;-91
2022/07/04 10:56:56;;;;;;;3.67;3.28;;;22.60;60.90;;;;;;6238280;22;20174;-89
2022/07/04 10:59:28;;;;;;;3.40;3.10;;;22.60;61.80;;;;;;6230543;22;20228;-88
2022/07/04 11:02:22;;;;;;;3.65;3.35;;;22.50;62.30;;;;;;6232192;22;20145;-90
2022/07/04 11:05:09;;;;;;;3.90;3.30;;;22.50;63.00;;;;;;6234582;22;20206;-91
2022/07/04 11:07:57;;;;;;;3.88;3.40;;;22.50;63.40;;;;;;6193044;23;20452;-89
2022/07/04 11:10:35;;;;;;;3.80;3.28;;;22.40;63.80;;;;;;6150241;23;20168;-89
2022/07/04 11:13:07;;;;;;;3.90;3.38;;;22.40;64.00;;;;;;6159595;23;20225;-90
2022/07/04 11:16:05;;;;;;;3.35;3.05;;;22.40;64.50;;;;;;6135995;23;20232;-89
2022/07/04 11:18:44;;;;;;;3.63;3.33;;;22.30;64.70;;;;;;6047497;23;20512;-89
2022/07/04 11:21:19;;;;;;;3.40;3.10;;;22.30;65.20;;;;;;6078060;23;20156;-89
2022/07/04 11:23:50;;;;;;;3.70;3.40;;;22.30;65.40;;;;;;5986238;23;20202;-89
2022/07/04 11:26:15;;;;;;;3.63;3.33;;;22.30;65.80;;;;;;5940627;24;20171;-89
2022/07/04 11:28:42;;;;;;;3.35;3.10;;;22.20;66.10;;;;;;5964833;24;20541;-88
2022/07/04 11:31:14;;;;;;;3.60;3.30;;;22.20;66.30;;;;;;5937044;24;20156;-88
2022/07/04 11:33:41;;;;;;;3.38;3.13;;;22.20;66.50;;;;;;5917706;24;20520;-90
2022/07/04 11:36:16;;;;;;;3.40;3.10;;;22.20;66.60;;;;;;5967138;24;20668;-88
2022/07/04 11:39:00;;;;;;;3.83;3.53;;;22.10;66.70;;;;;;6004668;23;20154;-89
2022/07/04 11:47:06;;;;;;;4.60;3.70;;;22.10;67.30;;;;;;6042254;23;20154;-89
2022/07/04 11:49:34;;;;;;;3.40;3.10;;;22.10;67.10;;;;;;6046676;23;20185;-88
2022/07/04 11:52:00;;;;;;;3.55;3.25;;;22.00;68.00;;;;;;6031942;23;20639;-88
2022/07/04 11:54:33;;;;;;;3.65;3.35;;;22.00;68.00;;;;;;6059686;23;20191;-90
2022/07/04 11:57:18;;;;;;;4.03;3.63;;;21.90;68.10;;;;;;6105844;23;20494;-88
2022/07/04 11:59:50;;;;;;;4.10;3.70;;;21.90;68.30;;;;;;6102274;23;20235;-91
2022/07/04 12:02:16;;;;;;;3.65;3.35;;;22.00;68.50;;;;;;6118429;23;20182;-88
2022/07/04 12:04:44;;;;;;;3.60;3.30;;;21.90;68.70;;;;;;6109021;23;20155;-88
2022/07/04 12:07:11;;;;;;;3.70;3.40;;;21.90;68.90;;;;;;6163300;23;20155;-88
2022/07/04 12:09:39;;;;;;;3.63;3.33;;;21.90;69.00;;;;;;6137781;23;20214;-90
2022/07/04 12:12:05;;;;;;;3.63;3.33;;;21.80;69.00;;;;;;6140594;23;20186;-88
2022/07/04 12:14:33;;;;;;;3.58;3.28;;;21.90;69.20;;;;;;6126332;23;20146;-87
2022/07/04 12:17:16;;;;;;;3.50;3.20;;;21.80;69.50;;;;;;6152337;23;20160;-87
2022/07/04 12:19:52;;;;;;;3.70;3.40;;;21.90;69.70;;;;;;6175270;23;20141;-87
2022/07/04 12:22:30;;;;;;;3.63;3.33;;;21.80;69.70;;;;;;6199615;23;20148;-87
2022/07/04 12:24:57;;;;;;;3.60;3.30;;;21.90;69.90;;;;;;6201225;23;20172;-88
2022/07/04 12:27:25;;;;;;;3.50;3.15;;;21.90;69.80;;;;;;6195807;23;20570;-87
2022/07/04 12:29:51;;;;;;;3.35;3.05;;;21.80;69.90;;;;;;6170734;23;20145;-89
2022/07/04 12:32:17;;;;;;;3.90;3.60;;;21.80;70.10;;;;;;6195095;23;20185;-88
2022/07/04 12:34:44;;;;;;;3.70;3.40;;;21.80;70.10;;;;;;6196466;23;20168;-89
2022/07/04 12:37:11;;;;;;;3.72;3.42;;;21.80;70.20;;;;;;6221412;23;20137;-86
2022/07/04 12:39:41;;;;;;;3.85;3.40;;;21.80;70.40;;;;;;6196032;23;20152;-88
2022/07/04 12:42:16;;;;;;;3.75;3.45;;;21.80;70.30;;;;;;6221470;23;20130;-88
2022/07/04 12:44:44;;;;;;;4.03;3.63;;;21.80;70.40;;;;;;6196268;23;20227;-90
2022/07/04 12:47:12;;;;;;;3.60;3.30;;;21.70;70.50;;;;;;6197350;23;20249;-88
2022/07/04 12:49:42;;;;;;;3.50;3.20;;;21.80;70.70;;;;;;6209324;22;20195;-87
2022/07/04 12:52:11;;;;;;;3.70;3.40;;;21.80;70.80;;;;;;6225980;22;20188;-87
2022/07/04 12:54:38;;;;;;;3.70;3.40;;;21.90;70.90;;;;;;6252034;22;20145;-89
2022/07/04 12:57:07;;;;;;;3.60;3.30;;;21.80;71.20;;;;;;6251840;22;20141;-87
2022/07/04 12:59:33;;;;;;;3.38;3.15;;;21.80;71.30;;;;;;6251917;22;20208;-87
2022/07/04 13:02:02;;;;;;;3.85;3.55;;;21.80;71.40;;;;;;6226833;22;20144;-87
2022/07/04 13:04:27;;;;;;;3.50;3.20;;;21.80;71.70;;;;;;6251698;22;20145;-89
2022/07/04 13:06:54;;;;;;;3.80;3.50;;;21.80;72.00;;;;;;6281466;22;20183;-87
2022/07/04 13:09:20;;;;;;;3.60;3.30;;;21.80;72.00;;;;;;6255287;22;20148;-89